createdAt,value
2023-01-29T00:01:52.824Z,25.73
2023-01-29T00:04:19.483Z,26.13
2023-01-29T00:06:46.139Z,24.65
2023-01-29T00:09:12.872Z,24.65
2023-01-29T00:11:39.693Z,24.66
2023-01-29T00:14:06.408Z,25.78
2023-01-29T00:16:33.073Z,25.95
2023-01-29T00:19:01.275Z,25.57
2023-01-29T00:21:27.945Z,26.05
2023-01-29T00:23:54.610Z,26.23
2023-01-29T00:26:21.266Z,26.25
2023-01-29T00:28:47.973Z,25.84
2023-01-29T00:31:17.177Z,26.93
2023-01-29T00:33:43.871Z,26.56
2023-01-29T00:36:11.929Z,25.72
2023-01-29T00:38:38.702Z,25.57
2023-01-29T00:41:09.165Z,26.31
2023-01-29T00:43:35.803Z,26.78
2023-01-29T00:46:02.445Z,25.29
2023-01-29T00:48:29.097Z,25.99
2023-01-29T00:50:55.743Z,25.14
2023-01-29T00:53:22.420Z,24.98
2023-01-29T00:55:49.107Z,25.30
2023-01-29T00:58:15.783Z,25.62
2023-01-29T01:00:42.436Z,25.52
2023-01-29T01:03:10.208Z,25.61
2023-01-29T01:05:36.941Z,25.64
2023-01-29T01:08:03.902Z,25.80
2023-01-29T01:10:32.164Z,25.41
2023-01-29T01:13:03.793Z,25.88
2023-01-29T01:15:31.957Z,25.78
2023-01-29T01:17:59.308Z,25.88
2023-01-29T01:20:26.728Z,26.07
2023-01-29T01:22:53.716Z,25.14
2023-01-29T01:25:20.891Z,25.56
2023-01-29T01:27:47.604Z,25.53
2023-01-29T01:30:15.410Z,25.36
2023-01-29T01:32:42.389Z,25.15
2023-01-29T01:35:10.041Z,25.43
2023-01-29T01:37:36.692Z,26.12
2023-01-29T01:40:08.969Z,26.28
2023-01-29T01:42:35.609Z,25.66
2023-01-29T01:45:04.012Z,26.29
2023-01-29T01:47:34.722Z,24.92
2023-01-29T01:50:09.775Z,26.45
2023-01-29T01:52:37.462Z,26.16
2023-01-29T01:55:04.450Z,26.18
2023-01-29T01:57:31.120Z,26.14
2023-01-29T02:00:07.883Z,24.94
2023-01-29T02:02:34.543Z,26.87
2023-01-29T02:05:01.206Z,26.30
2023-01-29T02:07:27.841Z,26.50
2023-01-29T02:10:15.865Z,25.99
2023-01-29T02:12:43.186Z,29.22
2023-01-29T02:15:10.132Z,26.61
2023-01-29T02:17:36.957Z,26.38
2023-01-29T02:20:20.513Z,27.00
2023-01-29T02:22:49.832Z,26.80
2023-01-29T02:25:40.878Z,26.62
2023-01-29T02:28:31.019Z,26.81
2023-01-29T02:31:09.718Z,26.58
2023-01-29T02:33:55.518Z,26.92
2023-01-29T02:36:24.835Z,26.93
2023-01-29T02:39:17.702Z,27.25
2023-01-29T02:42:13.239Z,26.33
2023-01-29T02:44:47.457Z,26.15
2023-01-29T02:47:37.658Z,26.17
2023-01-29T02:50:11.572Z,25.97
2023-01-29T02:52:44.942Z,26.40
2023-01-29T02:55:18.305Z,25.90
2023-01-29T02:57:46.091Z,25.66
2023-01-29T03:00:21.081Z,26.21
2023-01-29T03:02:58.460Z,26.14
2023-01-29T03:05:45.897Z,25.31
2023-01-29T03:08:15.513Z,25.65
2023-01-29T03:10:53.952Z,25.48
2023-01-29T03:13:38.679Z,25.33
2023-01-29T03:16:28.072Z,25.53
2023-01-29T03:19:01.822Z,25.28
2023-01-29T03:21:30.964Z,24.64
2023-01-29T03:23:57.957Z,24.96
2023-01-29T03:26:24.610Z,25.13
2023-01-29T03:28:51.295Z,25.29
2023-01-29T03:31:18.811Z,25.03
2023-01-29T03:33:50.870Z,23.96
2023-01-29T03:36:42.741Z,24.86
2023-01-29T03:39:09.392Z,24.95
2023-01-29T03:41:53.755Z,24.84
2023-01-29T03:44:26.689Z,24.97
2023-01-29T03:47:20.145Z,23.96
2023-01-29T03:50:07.233Z,25.12
2023-01-29T03:53:09.662Z,24.39
2023-01-29T03:55:48.523Z,24.54
2023-01-29T03:58:23.976Z,24.66
2023-01-29T04:01:09.822Z,23.49
2023-01-29T04:03:41.808Z,24.74
2023-01-29T04:06:20.586Z,24.71
2023-01-29T04:09:02.465Z,24.73
2023-01-29T04:11:30.509Z,24.34
2023-01-29T04:13:57.293Z,24.39
2023-01-29T04:16:38.993Z,25.23
2023-01-29T04:19:05.935Z,24.48
2023-01-29T04:21:32.682Z,23.86
2023-01-29T04:23:59.423Z,25.00
2023-01-29T04:26:38.229Z,24.89
2023-01-29T04:29:16.796Z,23.89
2023-01-29T04:32:04.342Z,23.57
2023-01-29T04:34:41.874Z,24.59
2023-01-29T04:37:26.406Z,24.16
2023-01-29T04:39:58.799Z,23.67
2023-01-29T04:42:31.328Z,23.66
2023-01-29T04:45:10.117Z,24.64
2023-01-29T04:47:37.940Z,24.04
2023-01-29T04:50:14.062Z,23.71
2023-01-29T04:52:58.106Z,23.45
2023-01-29T04:55:27.225Z,23.91
2023-01-29T04:57:59.897Z,23.48
2023-01-29T05:00:37.714Z,23.84
2023-01-29T05:03:04.492Z,23.68
2023-01-29T05:05:31.284Z,22.92
2023-01-29T05:07:58.014Z,23.88
2023-01-29T05:10:24.867Z,23.70
2023-01-29T05:13:01.635Z,24.55
2023-01-29T05:15:34.039Z,23.89
2023-01-29T05:18:00.706Z,23.64
2023-01-29T05:20:27.515Z,23.81
2023-01-29T05:22:54.236Z,23.42
2023-01-29T05:25:23.359Z,24.03
2023-01-29T05:27:50.698Z,23.26
2023-01-29T05:30:17.664Z,23.72
2023-01-29T05:32:44.599Z,24.02
2023-01-29T05:35:11.282Z,23.65
2023-01-29T05:37:37.956Z,23.50
2023-01-29T05:40:04.918Z,23.55
2023-01-29T05:42:32.512Z,24.06
2023-01-29T05:44:59.232Z,23.13
2023-01-29T05:47:25.857Z,23.70
2023-01-29T05:49:52.508Z,24.13
2023-01-29T05:52:19.163Z,23.65
2023-01-29T05:54:46.825Z,23.95
2023-01-29T05:57:14.648Z,24.35
2023-01-29T05:59:41.293Z,24.53
2023-01-29T06:02:07.976Z,24.00
2023-01-29T06:04:34.628Z,24.36
2023-01-29T06:07:01.294Z,23.41
2023-01-29T06:09:27.904Z,23.70
2023-01-29T06:11:54.678Z,24.06
2023-01-29T06:14:21.394Z,23.64
2023-01-29T06:16:48.030Z,24.00
2023-01-29T06:19:14.679Z,23.34
2023-01-29T06:21:41.364Z,24.54
2023-01-29T06:24:08.664Z,23.39
2023-01-29T06:26:35.317Z,24.03
2023-01-29T06:29:02.224Z,23.90
2023-01-29T06:31:38.250Z,23.63
2023-01-29T06:34:11.296Z,24.82
2023-01-29T06:36:38.189Z,23.94
2023-01-29T06:39:04.854Z,24.43
2023-01-29T06:41:31.512Z,23.90
2023-01-29T06:43:58.245Z,23.54
2023-01-29T06:46:24.989Z,23.00
2023-01-29T06:48:51.717Z,23.72
2023-01-29T06:51:18.608Z,24.60
2023-01-29T06:53:46.432Z,23.78
2023-01-29T06:56:13.295Z,23.76
2023-01-29T06:58:40.681Z,25.14
2023-01-29T07:01:08.437Z,23.87
2023-01-29T07:03:35.163Z,24.92
2023-01-29T07:06:01.804Z,23.49
2023-01-29T07:08:28.417Z,24.74
2023-01-29T07:11:01.697Z,24.86
2023-01-29T07:13:28.536Z,24.78
2023-01-29T07:15:58.460Z,25.33
2023-01-29T07:18:25.117Z,25.44
2023-01-29T07:20:51.986Z,24.93
2023-01-29T07:23:18.706Z,25.19
2023-01-29T07:25:45.422Z,24.73
2023-01-29T07:28:12.129Z,24.90
2023-01-29T07:30:38.809Z,24.40
2023-01-29T07:33:07.617Z,25.00
2023-01-29T07:35:41.239Z,24.32
2023-01-29T07:38:10.987Z,24.07
2023-01-29T07:40:37.692Z,25.65
2023-01-29T07:43:05.657Z,25.05
2023-01-29T07:45:34.075Z,24.67
2023-01-29T07:48:00.740Z,24.48
2023-01-29T07:50:27.471Z,24.38
2023-01-29T07:52:54.464Z,24.40
2023-01-29T07:55:21.139Z,25.11
2023-01-29T07:57:47.793Z,23.96
2023-01-29T08:00:15.066Z,25.26
2023-01-29T08:02:42.068Z,24.90
2023-01-29T08:05:08.916Z,24.54
2023-01-29T08:07:35.523Z,23.68
2023-01-29T08:10:02.182Z,23.50
2023-01-29T08:12:28.832Z,23.08
2023-01-29T08:14:55.918Z,24.07
2023-01-29T08:17:22.544Z,23.22
2023-01-29T08:19:49.150Z,24.19
2023-01-29T08:22:16.082Z,23.44
2023-01-29T08:24:53.813Z,23.39
2023-01-29T08:27:26.712Z,22.84
2023-01-29T08:29:53.508Z,22.82
2023-01-29T08:32:20.104Z,22.95
2023-01-29T08:34:46.940Z,21.60
2023-01-29T08:37:13.958Z,21.84
2023-01-29T08:42:12.223Z,21.55
2023-01-29T08:44:38.843Z,22.21
2023-01-29T08:47:05.482Z,22.70
2023-01-29T08:49:32.188Z,23.03
2023-01-29T08:51:58.840Z,22.52
2023-01-29T08:54:25.445Z,22.78
2023-01-29T08:56:52.160Z,22.52
2023-01-29T08:59:18.812Z,22.30
2023-01-29T09:01:45.496Z,22.59
2023-01-29T09:04:12.125Z,22.55
2023-01-29T09:06:38.746Z,23.07
2023-01-29T09:09:05.425Z,22.75
2023-01-29T09:11:32.100Z,21.39
2023-01-29T09:13:59.095Z,21.80
2023-01-29T09:16:26.013Z,22.63
2023-01-29T09:18:53.207Z,22.04
2023-01-29T09:21:19.873Z,22.83
2023-01-29T09:23:48.278Z,23.43
2023-01-29T09:26:14.950Z,22.27
2023-01-29T09:28:41.564Z,22.41
2023-01-29T09:31:08.310Z,22.77
2023-01-29T09:33:34.983Z,22.69
2023-01-29T09:36:04.291Z,22.28
2023-01-29T09:38:32.380Z,21.98
2023-01-29T09:41:31.217Z,22.63
2023-01-29T09:44:02.469Z,22.80
2023-01-29T09:46:46.317Z,21.53
2023-01-29T09:49:24.226Z,21.87
2023-01-29T09:51:58.652Z,22.48
2023-01-29T09:54:28.206Z,22.70
2023-01-29T09:56:55.850Z,22.49
2023-01-29T09:59:27.935Z,22.15
2023-01-29T10:02:34.275Z,22.00
2023-01-29T10:05:08.954Z,22.44
2023-01-29T10:07:46.246Z,22.30
2023-01-29T10:10:34.158Z,22.46
2023-01-29T10:13:11.357Z,22.68
2023-01-29T10:15:44.292Z,23.47
2023-01-29T10:18:28.260Z,22.72
2023-01-29T10:21:21.364Z,23.03
2023-01-29T10:23:50.255Z,23.43
2023-01-29T10:26:16.964Z,23.07
2023-01-29T10:28:46.414Z,22.17
2023-01-29T10:31:15.252Z,23.53
2023-01-29T10:33:49.130Z,22.83
2023-01-29T10:36:28.787Z,22.84
2023-01-29T10:38:55.691Z,23.97
2023-01-29T10:41:46.880Z,24.00
2023-01-29T10:44:32.161Z,23.58
2023-01-29T10:47:01.701Z,23.21
2023-01-29T10:50:10.049Z,24.06
2023-01-29T10:52:49.914Z,23.61
2023-01-29T10:55:27.713Z,23.69
2023-01-29T10:58:14.159Z,25.08
2023-01-29T11:00:42.491Z,25.21
2023-01-29T11:03:27.907Z,24.61
2023-01-29T11:06:29.734Z,24.50
2023-01-29T11:09:08.509Z,24.52
2023-01-29T11:12:07.696Z,23.58
2023-01-29T11:14:49.368Z,24.29
2023-01-29T11:17:17.507Z,25.05
2023-01-29T11:19:45.326Z,23.74
2023-01-29T11:22:22.160Z,24.01
2023-01-29T11:25:18.851Z,23.70
2023-01-29T11:27:52.641Z,24.08
2023-01-29T11:30:23.781Z,22.93
2023-01-29T11:32:52.730Z,22.82
2023-01-29T11:35:24.287Z,23.47
2023-01-29T11:37:50.885Z,23.83
2023-01-29T11:40:20.330Z,23.78
2023-01-29T11:42:47.203Z,24.43
2023-01-29T11:45:22.874Z,23.92
2023-01-29T11:47:50.422Z,23.50
2023-01-29T11:50:22.501Z,23.75
2023-01-29T11:52:49.120Z,23.20
2023-01-29T11:55:21.094Z,24.24
2023-01-29T11:57:52.740Z,23.60
2023-01-29T12:00:33.364Z,24.31
2023-01-29T12:03:13.597Z,23.92
2023-01-29T12:05:42.297Z,22.16
2023-01-29T12:08:17.029Z,22.97
2023-01-29T12:10:43.756Z,22.67
2023-01-29T12:13:10.309Z,23.39
2023-01-29T12:15:40.593Z,23.77
2023-01-29T12:18:38.113Z,23.98
2023-01-29T12:21:06.006Z,23.60
2023-01-29T12:23:46.124Z,24.63
2023-01-29T12:26:24.504Z,24.43
2023-01-29T12:29:07.800Z,24.95
2023-01-29T12:31:49.479Z,26.14
2023-01-29T12:34:24.867Z,24.04
2023-01-29T12:36:55.417Z,26.64
2023-01-29T12:39:22.068Z,24.28
2023-01-29T12:42:00.448Z,25.76
2023-01-29T12:45:03.243Z,26.09
2023-01-29T12:47:41.522Z,25.55
2023-01-29T12:50:44.013Z,24.30
2023-01-29T12:53:28.827Z,24.38
2023-01-29T12:55:59.223Z,26.09
2023-01-29T12:58:35.947Z,25.02
2023-01-29T13:01:12.336Z,25.48
2023-01-29T13:03:53.087Z,24.29
2023-01-29T13:06:22.629Z,26.19
2023-01-29T13:08:50.648Z,25.77
2023-01-29T13:11:34.174Z,25.04
2023-01-29T13:14:03.305Z,25.64
2023-01-29T13:16:37.587Z,26.11
2023-01-29T13:19:28.634Z,25.99
2023-01-29T13:21:56.816Z,24.12
2023-01-29T13:24:24.303Z,23.91
2023-01-29T13:26:52.519Z,24.80
2023-01-29T13:29:29.107Z,23.70
2023-01-29T13:31:56.774Z,26.00
2023-01-29T13:34:34.661Z,24.03
2023-01-29T13:37:03.082Z,25.15
2023-01-29T13:39:34.156Z,24.59
2023-01-29T13:42:01.240Z,23.51
2023-01-29T13:44:36.057Z,24.04
2023-01-29T13:47:07.859Z,24.26
2023-01-29T13:49:52.713Z,24.17
2023-01-29T13:52:54.687Z,23.18
2023-01-29T13:55:24.125Z,23.88
2023-01-29T13:57:56.181Z,24.03
2023-01-29T14:00:22.880Z,25.21
2023-01-29T14:02:55.316Z,24.15
2023-01-29T14:05:30.961Z,22.97
2023-01-29T14:08:01.319Z,25.23
2023-01-29T14:10:32.233Z,24.51
2023-01-29T14:13:04.832Z,24.47
2023-01-29T14:15:35.256Z,24.55
2023-01-29T14:18:04.962Z,23.85
2023-01-29T14:20:51.380Z,24.02
2023-01-29T14:23:29.808Z,23.83
2023-01-29T14:25:58.653Z,23.85
2023-01-29T14:28:28.730Z,23.57
2023-01-29T14:30:55.561Z,24.72
2023-01-29T14:33:31.165Z,24.08
2023-01-29T14:35:57.878Z,25.12
2023-01-29T14:38:26.412Z,24.98
2023-01-29T14:41:02.403Z,23.78
2023-01-29T14:43:29.027Z,24.04
2023-01-29T14:45:55.700Z,25.19
2023-01-29T14:48:51.743Z,25.06
2023-01-29T14:51:18.405Z,24.15
2023-01-29T14:54:06.461Z,24.42
2023-01-29T14:56:53.703Z,26.04
2023-01-29T14:59:29.559Z,25.22
2023-01-29T15:01:56.691Z,25.70
2023-01-29T15:04:27.855Z,24.67
2023-01-29T15:07:09.744Z,25.98
2023-01-29T15:09:57.250Z,25.78
2023-01-29T15:12:31.475Z,25.66
2023-01-29T15:15:24.175Z,26.97
2023-01-29T15:18:05.889Z,25.88
2023-01-29T15:20:34.332Z,26.92
2023-01-29T15:23:01.624Z,25.21
2023-01-29T15:25:28.289Z,25.26
2023-01-29T15:27:54.988Z,25.82
2023-01-29T15:30:28.201Z,27.16
2023-01-29T15:32:55.004Z,26.85
2023-01-29T15:35:34.689Z,26.52
2023-01-29T15:38:05.319Z,27.61
2023-01-29T15:40:31.963Z,27.66
2023-01-29T15:42:58.615Z,29.69
2023-01-29T15:45:32.158Z,30.49
2023-01-29T15:48:01.830Z,27.24
2023-01-29T15:50:29.044Z,26.68
2023-01-29T15:52:55.720Z,27.23
2023-01-29T15:55:22.827Z,26.95
2023-01-29T15:57:49.455Z,26.95
2023-01-29T16:00:25.337Z,26.15
2023-01-29T16:02:52.174Z,25.70
2023-01-29T16:05:29.560Z,26.25
2023-01-29T16:07:56.361Z,26.19
2023-01-29T16:10:24.778Z,27.14
2023-01-29T16:12:51.525Z,27.33
2023-01-29T16:15:29.132Z,27.44
2023-01-29T16:17:55.952Z,26.41
2023-01-29T16:20:40.106Z,26.17
2023-01-29T16:23:06.803Z,36.56
2023-01-29T16:25:33.979Z,31.05
2023-01-29T16:28:03.567Z,37.57
2023-01-29T16:30:30.201Z,32.93
2023-01-29T16:33:03.997Z,31.86
2023-01-29T16:35:30.651Z,40.24
2023-01-29T16:38:03.244Z,27.65
2023-01-29T16:40:31.843Z,29.52
2023-01-29T16:43:17.192Z,28.24
2023-01-29T16:45:43.936Z,27.68
2023-01-29T16:48:26.396Z,27.31
2023-01-29T16:51:03.205Z,26.22
2023-01-29T16:53:29.931Z,26.38
2023-01-29T16:55:56.610Z,24.90
2023-01-29T16:58:25.277Z,25.09
2023-01-29T17:01:10.823Z,25.22
2023-01-29T17:03:37.772Z,25.52
2023-01-29T17:06:19.054Z,24.68
2023-01-29T17:08:45.726Z,25.50
2023-01-29T17:11:13.676Z,25.28
2023-01-29T17:13:43.901Z,25.18
2023-01-29T17:16:28.262Z,24.94
2023-01-29T17:18:54.959Z,24.44
2023-01-29T17:21:21.623Z,24.05
2023-01-29T17:23:48.273Z,24.35
2023-01-29T17:26:15.063Z,24.20
2023-01-29T17:28:41.721Z,24.54
2023-01-29T17:31:08.493Z,24.47
2023-01-29T17:33:35.911Z,24.68
2023-01-29T17:36:02.641Z,24.60
2023-01-29T17:38:29.322Z,25.82
2023-01-29T17:41:05.621Z,24.68
2023-01-29T17:43:32.249Z,26.32
2023-01-29T17:45:58.989Z,25.96
2023-01-29T17:48:29.143Z,25.63
2023-01-29T17:50:58.871Z,26.04
2023-01-29T17:53:30.580Z,26.35
2023-01-29T17:56:03.100Z,26.14
2023-01-29T17:58:29.885Z,26.70
2023-01-29T18:00:56.559Z,26.32
2023-01-29T18:03:23.285Z,26.93
2023-01-29T18:05:50.153Z,27.26
2023-01-29T18:08:29.419Z,27.15
2023-01-29T18:10:56.097Z,27.17
2023-01-29T18:13:22.935Z,27.55
2023-01-29T18:15:50.105Z,27.04
2023-01-29T18:18:19.377Z,27.55
2023-01-29T18:20:46.115Z,28.14
2023-01-29T18:23:13.188Z,28.57
2023-01-29T18:25:39.957Z,29.46
2023-01-29T18:28:06.840Z,29.85
2023-01-29T18:30:33.745Z,30.86
2023-01-29T18:33:00.450Z,32.18
2023-01-29T18:35:27.683Z,33.85
2023-01-29T18:37:54.696Z,32.82
2023-01-29T18:40:21.388Z,33.59
2023-01-29T18:42:48.118Z,35.07
2023-01-29T18:45:15.250Z,34.30
2023-01-29T18:47:42.253Z,34.21
2023-01-29T18:50:10.469Z,33.72
2023-01-29T18:52:37.205Z,34.17
2023-01-29T18:55:07.196Z,34.96
2023-01-29T18:58:28.997Z,36.90
2023-01-29T19:00:23.456Z,36.84
2023-01-29T19:02:50.155Z,37.50
2023-01-29T19:05:17.342Z,37.20
2023-01-29T19:07:44.268Z,37.51
2023-01-29T19:10:13.531Z,39.95
2023-01-29T19:12:40.244Z,41.68
2023-01-29T19:15:08.007Z,41.41
2023-01-29T19:17:34.633Z,42.11
2023-01-29T19:20:01.273Z,42.70
2023-01-29T19:22:28.905Z,44.52
2023-01-29T19:24:55.603Z,44.25
2023-01-29T19:27:22.689Z,45.11
2023-01-29T19:29:49.350Z,43.57
2023-01-29T19:32:16.075Z,43.77
2023-01-29T19:34:42.746Z,43.30
2023-01-29T19:37:09.552Z,43.25
2023-01-29T19:39:36.784Z,42.73
2023-01-29T19:42:03.639Z,42.09
2023-01-29T19:44:30.336Z,40.78
2023-01-29T19:46:57.019Z,41.95
2023-01-29T19:49:25.196Z,41.40
2023-01-29T19:51:51.932Z,40.82
2023-01-29T19:54:18.559Z,41.22
2023-01-29T19:56:45.211Z,42.12
2023-01-29T19:59:12.104Z,42.46
2023-01-29T20:01:38.789Z,41.89
2023-01-29T20:04:05.448Z,39.94
2023-01-29T20:06:32.187Z,40.97
2023-01-29T20:08:58.899Z,40.40
2023-01-29T20:11:25.582Z,39.44
2023-01-29T20:13:52.361Z,39.88
2023-01-29T20:16:19.244Z,40.50
2023-01-29T20:18:46.198Z,39.28
2023-01-29T20:21:14.485Z,38.94
2023-01-29T20:23:41.393Z,41.00
2023-01-29T20:26:09.732Z,40.13
2023-01-29T20:28:36.382Z,39.35
2023-01-29T20:31:03.694Z,40.28
2023-01-29T20:33:30.459Z,37.67
2023-01-29T20:35:58.219Z,36.75
2023-01-29T20:38:25.682Z,38.70
2023-01-29T20:40:52.327Z,38.11
2023-01-29T20:43:21.505Z,39.22
2023-01-29T20:45:48.346Z,38.48
2023-01-29T20:48:15.019Z,39.35
2023-01-29T20:50:44.591Z,38.44
2023-01-29T20:53:11.388Z,38.09
2023-01-29T20:55:38.203Z,39.11
2023-01-29T20:58:06.787Z,40.00
2023-01-29T21:00:33.658Z,39.06
2023-01-29T21:03:00.421Z,39.19
2023-01-29T21:05:27.109Z,38.52
2023-01-29T21:07:53.767Z,37.69
2023-01-29T21:10:20.379Z,36.83
2023-01-29T21:12:47.039Z,37.74
2023-01-29T21:15:13.715Z,36.63
2023-01-29T21:17:40.720Z,36.05
2023-01-29T21:20:08.082Z,35.70
2023-01-29T21:22:34.791Z,36.19
2023-01-29T21:25:01.447Z,37.00
2023-01-29T21:27:28.086Z,36.56
2023-01-29T21:29:54.811Z,36.20
2023-01-29T21:32:21.544Z,35.63
2023-01-29T21:34:48.220Z,35.62
2023-01-29T21:37:14.963Z,36.70
2023-01-29T21:39:41.634Z,37.27
2023-01-29T21:42:08.421Z,37.12
2023-01-29T21:44:36.032Z,37.01
2023-01-29T21:47:02.875Z,36.84
2023-01-29T21:49:29.584Z,37.25
2023-01-29T21:51:57.546Z,37.25
2023-01-29T21:54:24.280Z,37.71
2023-01-29T21:56:50.921Z,37.17
2023-01-29T21:59:17.524Z,38.31
2023-01-29T22:01:44.244Z,37.56
2023-01-29T22:04:10.954Z,36.12
2023-01-29T22:06:37.617Z,35.84
2023-01-29T22:09:07.435Z,35.02
2023-01-29T22:11:34.471Z,35.29
2023-01-29T22:14:01.176Z,33.61
2023-01-29T22:16:27.953Z,33.49
2023-01-29T22:18:54.739Z,33.60
2023-01-29T22:21:21.385Z,34.29
2023-01-29T22:23:48.639Z,33.94
2023-01-29T22:26:15.556Z,32.67
2023-01-29T22:28:42.606Z,34.08
2023-01-29T22:31:09.235Z,34.06
2023-01-29T22:33:35.885Z,33.68
2023-01-29T22:36:02.528Z,34.07
2023-01-29T22:38:29.353Z,33.35
2023-01-29T22:40:56.624Z,33.25
2023-01-29T22:43:23.421Z,33.18
2023-01-29T22:45:50.106Z,32.60
2023-01-29T22:48:16.739Z,32.66
2023-01-29T22:50:43.410Z,32.05
2023-01-29T22:53:10.081Z,32.30
2023-01-29T22:55:36.762Z,31.61
2023-01-29T22:58:03.376Z,32.09
2023-01-29T23:00:30.065Z,32.27
2023-01-29T23:02:56.710Z,31.78
2023-01-29T23:05:24.545Z,30.97
2023-01-29T23:07:51.223Z,30.85
2023-01-29T23:10:18.225Z,31.42
2023-01-29T23:12:45.039Z,30.66
2023-01-29T23:15:11.675Z,30.57
2023-01-29T23:17:38.374Z,29.64
2023-01-29T23:20:05.507Z,30.74
2023-01-29T23:22:32.140Z,30.70
2023-01-29T23:24:58.891Z,31.15
2023-01-29T23:27:25.582Z,30.61
2023-01-29T23:29:52.247Z,30.15
2023-01-29T23:32:19.672Z,30.10
2023-01-29T23:34:46.294Z,29.81
2023-01-29T23:37:12.915Z,30.20
2023-01-29T23:39:39.518Z,31.58
2023-01-29T23:42:06.169Z,29.58
2023-01-29T23:44:32.833Z,29.27
2023-01-29T23:46:59.523Z,28.28
2023-01-29T23:49:26.141Z,27.74
2023-01-29T23:51:52.753Z,29.10
2023-01-29T23:54:19.836Z,28.07
2023-01-29T23:56:46.558Z,27.96
2023-01-29T23:59:13.222Z,28.97
